Time;durP1;ratioP1;P1;durP2;ratioP2;P2;SDS_P1;SDS_P2;PMS_P1;PMS_P2;Temp;Humidity;BMP_temperature;BMP_pressure;BME280_temperature;BME280_humidity;BME280_pressure;Samples;Min_cycle;Max_cycle;Signal;HPM_P1;HPM_P2
2023/07/09 00:01:17;;;;;;;10.75;5.20;;;19.10;99.90;;;;;;5108043;28;20042;-75
2023/07/09 00:03:44;;;;;;;16.45;5.25;;;19.10;99.90;;;;;;5107030;28;20295;-75
2023/07/09 00:06:12;;;;;;;11.05;5.07;;;19.00;99.90;;;;;;5106748;28;20024;-78
2023/07/09 00:08:41;;;;;;;8.95;5.03;;;19.10;99.90;;;;;;5108142;28;20089;-74
2023/07/09 00:11:07;;;;;;;9.33;5.23;;;19.10;99.90;;;;;;5105877;28;20030;-75
2023/07/09 00:13:32;;;;;;;11.63;5.38;;;19.10;99.90;;;;;;5106592;28;20377;-78
2023/07/09 00:16:01;;;;;;;10.95;5.40;;;19.10;99.90;;;;;;5107704;28;20019;-80
2023/07/09 00:18:26;;;;;;;10.05;5.32;;;19.10;99.90;;;;;;5106434;28;20387;-72
2023/07/09 00:20:52;;;;;;;10.52;5.20;;;19.00;99.90;;;;;;5104505;28;20036;-77
2023/07/09 00:23:19;;;;;;;9.93;5.10;;;19.00;99.90;;;;;;5106370;28;20063;-76
2023/07/09 00:25:45;;;;;;;11.10;5.40;;;19.00;99.90;;;;;;5107362;28;20032;-79
2023/07/09 00:28:16;;;;;;;9.07;4.65;;;18.90;99.90;;;;;;5106424;28;20023;-77
2023/07/09 00:30:41;;;;;;;9.98;4.65;;;18.90;99.90;;;;;;5107096;28;20445;-79
2023/07/09 00:33:20;;;;;;;13.07;4.85;;;18.80;99.90;;;;;;5107270;28;20039;-74
2023/07/09 00:35:48;;;;;;;10.43;5.25;;;18.90;99.90;;;;;;5107390;28;20032;-77
2023/07/09 00:38:22;;;;;;;11.27;5.78;;;18.90;99.90;;;;;;5107096;28;20027;-78
2023/07/09 00:41:04;;;;;;;10.52;4.95;;;18.80;99.90;;;;;;5088965;28;20024;-76
2023/07/09 00:43:32;;;;;;;9.98;5.13;;;18.80;99.90;;;;;;5101129;28;20441;-71
2023/07/09 00:46:22;;;;;;;14.18;5.45;;;18.70;99.90;;;;;;5108197;28;20035;-78
2023/07/09 00:48:53;;;;;;;11.10;5.53;;;18.60;99.90;;;;;;5061319;28;20047;-78
2023/07/09 00:51:21;;;;;;;12.02;5.97;;;18.60;99.90;;;;;;5089138;28;20819;-77
2023/07/09 00:53:51;;;;;;;9.07;5.53;;;18.50;99.90;;;;;;5111417;28;20255;-78
2023/07/09 00:56:30;;;;;;;11.18;5.00;;;18.50;99.90;;;;;;5098572;28;20081;-79
2023/07/09 00:59:01;;;;;;;12.98;6.35;;;18.60;99.90;;;;;;5098008;28;20468;-77
2023/07/09 01:01:27;;;;;;;13.27;5.30;;;18.60;99.90;;;;;;5109320;28;20039;-74
2023/07/09 01:03:58;;;;;;;12.60;5.65;;;18.50;99.90;;;;;;5110212;28;20115;-75
2023/07/09 01:06:32;;;;;;;11.35;6.03;;;18.50;99.90;;;;;;5109359;28;20031;-76
2023/07/09 01:09:00;;;;;;;9.32;4.93;;;18.30;99.90;;;;;;5111391;28;20392;-75
2023/07/09 01:11:26;;;;;;;10.75;5.53;;;18.20;99.90;;;;;;5105932;28;20093;-76
2023/07/09 01:13:55;;;;;;;12.35;6.10;;;18.20;99.90;;;;;;5110422;28;20035;-78
2023/07/09 01:16:25;;;;;;;12.93;5.63;;;18.20;99.90;;;;;;5109415;28;20036;-77
2023/07/09 01:18:51;;;;;;;12.00;5.07;;;18.20;99.90;;;;;;5109336;27;20085;-77
2023/07/09 01:21:17;;;;;;;10.45;6.22;;;18.20;99.90;;;;;;5099057;28;20857;-79
2023/07/09 01:23:44;;;;;;;11.77;5.75;;;18.20;99.90;;;;;;5094965;28;20114;-76
2023/07/09 01:26:18;;;;;;;13.15;5.72;;;18.10;99.90;;;;;;5092706;28;20480;-76
2023/07/09 01:28:44;;;;;;;10.23;5.35;;;18.10;99.90;;;;;;5109914;28;20042;-79
2023/07/09 01:31:12;;;;;;;9.27;5.32;;;18.10;99.90;;;;;;5102981;28;20028;-76
2023/07/09 01:33:39;;;;;;;13.50;5.40;;;18.10;99.90;;;;;;5124079;27;20043;-75
2023/07/09 01:36:09;;;;;;;11.77;5.18;;;18.00;99.90;;;;;;5128324;27;20016;-79
2023/07/09 01:38:35;;;;;;;12.40;5.43;;;17.90;99.90;;;;;;5110226;28;20028;-80
2023/07/09 01:41:01;;;;;;;7.88;4.82;;;17.80;99.90;;;;;;5114249;27;20038;-77
2023/07/09 01:43:28;;;;;;;15.02;5.45;;;17.80;99.90;;;;;;5109944;28;20043;-77
2023/07/09 01:45:57;;;;;;;8.63;4.80;;;17.80;99.90;;;;;;5106413;28;20530;-78
2023/07/09 01:48:24;;;;;;;13.70;5.32;;;17.90;99.90;;;;;;5098501;28;20439;-79
2023/07/09 01:50:51;;;;;;;10.05;5.47;;;17.90;99.90;;;;;;5099501;28;20494;-78
2023/07/09 01:53:23;;;;;;;10.32;5.63;;;18.00;99.90;;;;;;5106639;28;20075;-77
2023/07/09 01:55:50;;;;;;;8.70;5.25;;;18.20;99.90;;;;;;5103417;28;20036;-76
2023/07/09 01:58:16;;;;;;;9.30;4.85;;;18.20;99.90;;;;;;5100668;28;20032;-78
2023/07/09 02:00:43;;;;;;;13.70;5.50;;;18.20;99.90;;;;;;5101276;28;20118;-77
2023/07/09 02:03:08;;;;;;;14.25;5.07;;;18.00;99.90;;;;;;5104328;28;20028;-77
2023/07/09 02:05:36;;;;;;;11.80;5.57;;;17.90;99.90;;;;;;5103782;28;20459;-72
2023/07/09 02:08:02;;;;;;;10.73;5.50;;;17.70;99.90;;;;;;5108679;28;20536;-77
2023/07/09 02:10:28;;;;;;;13.60;5.10;;;17.70;99.90;;;;;;5108639;28;20058;-78
2023/07/09 02:12:54;;;;;;;9.45;5.50;;;17.70;99.90;;;;;;5097363;28;20796;-79
2023/07/09 02:15:20;;;;;;;11.98;5.32;;;17.70;99.90;;;;;;5110669;28;20118;-80
2023/07/09 02:17:46;;;;;;;10.15;5.75;;;17.60;99.90;;;;;;5106830;27;20084;-76
2023/07/09 02:20:12;;;;;;;9.77;5.20;;;17.80;99.90;;;;;;5114609;27;20039;-75
2023/07/09 02:22:40;;;;;;;13.13;5.72;;;17.80;99.90;;;;;;5105600;28;20107;-75
2023/07/09 02:25:06;;;;;;;12.68;6.03;;;17.80;99.90;;;;;;5114936;27;20023;-76
2023/07/09 02:27:33;;;;;;;15.75;6.90;;;17.70;99.90;;;;;;5113331;27;20032;-72
2023/07/09 02:30:00;;;;;;;11.05;6.18;;;17.60;99.90;;;;;;5109340;28;20024;-77
2023/07/09 02:32:27;;;;;;;11.35;5.70;;;17.50;99.90;;;;;;5107634;28;20032;-76
2023/07/09 02:34:54;;;;;;;10.57;5.97;;;17.50;99.90;;;;;;5108354;27;20103;-77
2023/07/09 02:37:22;;;;;;;10.07;5.65;;;17.40;99.90;;;;;;5112170;27;20081;-77
2023/07/09 02:39:48;;;;;;;9.50;5.57;;;17.40;99.90;;;;;;5105862;28;20031;-77
2023/07/09 02:42:17;;;;;;;9.30;5.45;;;17.40;99.90;;;;;;5103306;28;20554;-78
2023/07/09 02:44:43;;;;;;;11.50;5.68;;;17.30;99.90;;;;;;5106293;28;20027;-77
2023/07/09 02:47:09;;;;;;;10.23;5.30;;;17.20;99.90;;;;;;5089354;28;20044;-75
2023/07/09 02:49:36;;;;;;;11.48;5.72;;;17.10;99.90;;;;;;5049936;28;20116;-75
2023/07/09 02:52:02;;;;;;;13.23;5.85;;;17.00;99.90;;;;;;5061227;28;20032;-76
2023/07/09 02:54:27;;;;;;;11.93;5.57;;;17.00;99.90;;;;;;5069710;28;20115;-75
2023/07/09 02:56:53;;;;;;;8.82;5.32;;;17.00;99.90;;;;;;5067120;28;20104;-78
2023/07/09 02:59:20;;;;;;;10.65;5.65;;;17.10;99.90;;;;;;5062736;28;20571;-78
2023/07/09 03:01:47;;;;;;;9.57;5.40;;;17.10;99.90;;;;;;5060193;28;20056;-77
2023/07/09 03:04:13;;;;;;;13.50;5.53;;;17.00;99.90;;;;;;5067997;28;20497;-77
2023/07/09 03:06:40;;;;;;;15.15;5.53;;;17.00;99.90;;;;;;5065673;28;20036;-77
2023/07/09 03:09:05;;;;;;;9.48;5.40;;;16.90;99.90;;;;;;5063036;28;20032;-77
2023/07/09 03:11:33;;;;;;;7.70;4.47;;;16.80;99.90;;;;;;5067558;28;20107;-76
2023/07/09 03:13:59;;;;;;;11.70;5.18;;;16.80;99.90;;;;;;5068033;28;20105;-78
2023/07/09 03:16:31;;;;;;;8.95;5.30;;;16.80;99.90;;;;;;5062695;28;20127;-76
2023/07/09 03:18:56;;;;;;;9.30;5.05;;;16.80;99.90;;;;;;5083293;28;20097;-78
2023/07/09 03:21:24;;;;;;;10.60;5.10;;;16.80;99.90;;;;;;5063213;28;20036;-79
2023/07/09 03:23:50;;;;;;;10.60;5.55;;;16.80;99.90;;;;;;5080968;28;20029;-78
2023/07/09 03:26:16;;;;;;;8.60;5.20;;;16.70;99.90;;;;;;5074089;28;20488;-76
2023/07/09 03:28:42;;;;;;;10.82;5.57;;;16.70;99.90;;;;;;5077023;28;20067;-78
2023/07/09 03:31:07;;;;;;;12.63;5.68;;;16.80;99.90;;;;;;5055040;28;20029;-78
2023/07/09 03:33:33;;;;;;;11.55;5.57;;;16.90;99.90;;;;;;5068525;28;20043;-79
2023/07/09 03:35:59;;;;;;;9.52;5.72;;;17.00;99.90;;;;;;5067268;28;20724;-78
2023/07/09 03:38:24;;;;;;;11.02;5.75;;;17.00;99.90;;;;;;5066433;28;20036;-77
2023/07/09 03:40:54;;;;;;;10.65;5.10;;;16.90;99.90;;;;;;5071934;28;20020;-75
2023/07/09 03:43:20;;;;;;;12.32;6.28;;;16.80;99.90;;;;;;5048439;28;20037;-77
2023/07/09 03:45:47;;;;;;;12.38;6.15;;;16.80;99.90;;;;;;5078867;28;20024;-77
2023/07/09 03:48:14;;;;;;;12.25;6.05;;;16.90;99.90;;;;;;5096062;28;20051;-77
2023/07/09 03:50:42;;;;;;;11.20;6.07;;;16.90;99.90;;;;;;5115262;28;20121;-73
2023/07/09 03:53:07;;;;;;;17.35;5.88;;;16.90;99.90;;;;;;5110479;28;20444;-77
2023/07/09 03:55:33;;;;;;;14.38;6.25;;;16.90;99.90;;;;;;5088830;28;20129;-78
2023/07/09 03:57:59;;;;;;;10.60;6.70;;;16.90;99.90;;;;;;5104371;28;20028;-78
2023/07/09 04:00:25;;;;;;;10.35;6.03;;;16.90;99.90;;;;;;5079555;28;20032;-78
2023/07/09 04:02:51;;;;;;;13.60;6.72;;;16.90;99.90;;;;;;5101957;28;20023;-76
2023/07/09 04:05:17;;;;;;;14.95;6.47;;;16.90;99.90;;;;;;5118160;28;20031;-79
2023/07/09 04:07:44;;;;;;;11.50;6.25;;;16.90;99.90;;;;;;5115093;28;20042;-79
2023/07/09 04:10:09;;;;;;;12.35;6.43;;;16.90;99.90;;;;;;5129545;28;20413;-77
2023/07/09 04:12:36;;;;;;;15.93;6.35;;;16.90;99.90;;;;;;5129568;28;20035;-77
2023/07/09 04:15:03;;;;;;;13.70;5.93;;;17.00;99.90;;;;;;5108741;28;20063;-78
2023/07/09 04:17:29;;;;;;;11.23;6.25;;;17.00;99.90;;;;;;5107276;28;20020;-75
2023/07/09 04:19:54;;;;;;;10.65;5.50;;;17.10;99.90;;;;;;5095434;28;20080;-76
2023/07/09 04:22:21;;;;;;;12.52;6.57;;;17.20;99.90;;;;;;5110902;27;20040;-74
2023/07/09 04:24:47;;;;;;;9.77;5.85;;;17.20;99.90;;;;;;5112255;28;20027;-77
2023/07/09 04:27:13;;;;;;;14.48;6.57;;;17.20;99.90;;;;;;5112625;27;20131;-74
2023/07/09 04:29:40;;;;;;;12.38;5.80;;;17.30;99.90;;;;;;5133089;27;20043;-69
2023/07/09 04:32:07;;;;;;;10.82;6.00;;;17.30;99.90;;;;;;5104820;28;20597;-73
2023/07/09 04:34:32;;;;;;;9.50;5.68;;;17.40;99.90;;;;;;5112522;28;20047;-74
2023/07/09 04:36:58;;;;;;;9.35;5.45;;;17.40;99.90;;;;;;5131376;27;20842;-73
2023/07/09 04:39:24;;;;;;;10.18;5.90;;;17.50;99.90;;;;;;5129959;27;20494;-74
2023/07/09 04:41:49;;;;;;;13.57;6.15;;;17.70;99.90;;;;;;5131336;27;20028;-73
2023/07/09 04:44:15;;;;;;;11.05;5.95;;;17.80;99.90;;;;;;5133074;27;20034;-73
2023/07/09 04:46:40;;;;;;;12.57;6.07;;;18.00;99.90;;;;;;5131104;27;20039;-69
2023/07/09 04:49:06;;;;;;;10.50;5.65;;;18.10;99.90;;;;;;5105522;27;20039;-76
2023/07/09 04:51:33;;;;;;;14.50;6.32;;;18.30;99.90;;;;;;5109318;28;20558;-75
2023/07/09 04:54:02;;;;;;;11.40;5.32;;;18.40;99.90;;;;;;5111009;28;20483;-75
2023/07/09 04:56:29;;;;;;;12.77;5.70;;;18.50;99.90;;;;;;5111747;28;20481;-76
2023/07/09 04:58:55;;;;;;;10.82;6.00;;;18.60;99.90;;;;;;5102196;28;20035;-75
2023/07/09 05:01:21;;;;;;;9.80;5.82;;;18.60;99.90;;;;;;5102034;28;20076;-74
2023/07/09 05:03:46;;;;;;;10.05;5.70;;;18.70;99.90;;;;;;5111238;28;20456;-75
2023/07/09 05:06:13;;;;;;;11.13;5.95;;;18.60;99.90;;;;;;5112134;28;20059;-77
2023/07/09 05:08:38;;;;;;;9.98;6.07;;;18.70;99.90;;;;;;5104671;28;20099;-73
2023/07/09 05:11:04;;;;;;;12.32;5.97;;;18.70;99.90;;;;;;5090836;28;20136;-74
2023/07/09 05:13:30;;;;;;;10.48;6.32;;;18.80;99.90;;;;;;5104081;27;20031;-75
2023/07/09 05:15:55;;;;;;;11.93;6.38;;;18.90;99.90;;;;;;5101448;27;20144;-74
2023/07/09 05:18:21;;;;;;;10.45;5.70;;;18.90;99.90;;;;;;5125403;27;20046;-75
2023/07/09 05:20:47;;;;;;;18.75;6.45;;;18.80;99.90;;;;;;5131467;27;20682;-75
2023/07/09 05:23:13;;;;;;;12.15;6.05;;;18.90;99.90;;;;;;5132482;27;20138;-79
2023/07/09 05:25:39;;;;;;;10.38;5.43;;;19.00;99.90;;;;;;5132031;27;20068;-74
2023/07/09 05:28:05;;;;;;;10.32;6.45;;;19.10;99.90;;;;;;5117503;27;20072;-77
2023/07/09 05:30:31;;;;;;;12.35;6.47;;;19.20;99.90;;;;;;5111377;28;20054;-76
2023/07/09 05:32:57;;;;;;;12.75;6.10;;;19.30;99.90;;;;;;5108216;27;20040;-75
2023/07/09 05:35:26;;;;;;;11.02;5.57;;;19.40;99.90;;;;;;5097988;28;20024;-77
2023/07/09 05:37:55;;;;;;;11.48;6.47;;;19.50;99.90;;;;;;5101028;28;20051;-72
2023/07/09 05:40:22;;;;;;;12.35;5.55;;;19.60;99.90;;;;;;5103353;28;20039;-77
2023/07/09 05:42:48;;;;;;;12.25;6.28;;;19.60;99.90;;;;;;5102102;28;20126;-75
2023/07/09 05:45:15;;;;;;;12.50;6.32;;;19.60;99.90;;;;;;5106120;28;20078;-77
2023/07/09 05:47:40;;;;;;;11.95;6.40;;;19.70;99.90;;;;;;5106609;28;20051;-75
2023/07/09 05:50:06;;;;;;;9.00;5.95;;;19.80;99.90;;;;;;5103301;28;20805;-77
2023/07/09 05:52:32;;;;;;;13.80;6.65;;;20.00;99.90;;;;;;5121196;27;20036;-78
2023/07/09 05:54:59;;;;;;;11.13;6.55;;;20.30;99.90;;;;;;5108739;28;20036;-77
2023/07/09 05:57:25;;;;;;;11.05;6.03;;;20.40;99.90;;;;;;5108499;28;20078;-80
2023/07/09 05:59:51;;;;;;;13.57;7.32;;;20.70;99.90;;;;;;5107472;28;20565;-74
2023/07/09 06:02:19;;;;;;;14.70;7.45;;;20.90;99.90;;;;;;5094355;27;20028;-80
2023/07/09 06:04:45;;;;;;;14.43;8.57;;;21.10;99.90;;;;;;5100497;28;20031;-75
2023/07/09 06:07:13;;;;;;;15.75;7.50;;;21.40;99.90;;;;;;5110655;28;20020;-78
2023/07/09 06:09:39;;;;;;;14.70;7.75;;;21.50;99.90;;;;;;5092507;28;20031;-78
2023/07/09 06:12:06;;;;;;;13.40;7.20;;;21.50;99.90;;;;;;5109876;28;20027;-78
2023/07/09 06:14:32;;;;;;;12.65;6.70;;;21.60;99.90;;;;;;5107641;28;20237;-76
2023/07/09 06:16:59;;;;;;;15.13;7.05;;;21.60;99.90;;;;;;5107861;28;20466;-77
2023/07/09 06:19:25;;;;;;;9.93;6.28;;;21.80;99.90;;;;;;5126489;27;20023;-80
2023/07/09 06:21:51;;;;;;;12.85;6.63;;;22.00;99.90;;;;;;5105600;28;20039;-75
2023/07/09 06:24:16;;;;;;;12.10;6.60;;;22.30;99.90;;;;;;5097337;28;20036;-75
2023/07/09 06:26:42;;;;;;;13.43;6.85;;;22.50;99.90;;;;;;5093898;28;20028;-77
2023/07/09 06:29:08;;;;;;;11.77;6.65;;;22.70;99.90;;;;;;5099621;28;20406;-77
2023/07/09 06:31:33;;;;;;;10.60;6.10;;;22.80;99.90;;;;;;5095844;28;20141;-81
2023/07/09 06:33:59;;;;;;;9.73;6.03;;;22.80;99.90;;;;;;5108836;28;20038;-78
2023/07/09 06:36:25;;;;;;;13.27;6.97;;;22.90;99.90;;;;;;5094490;28;20125;-78
2023/07/09 06:38:50;;;;;;;10.13;6.50;;;23.10;99.90;;;;;;5105984;28;20494;-78
2023/07/09 06:41:16;;;;;;;11.50;6.65;;;23.10;99.90;;;;;;5108253;28;20040;-76
2023/07/09 06:43:42;;;;;;;11.68;6.65;;;23.30;99.90;;;;;;5089347;28;20031;-80
2023/07/09 06:46:11;;;;;;;11.45;6.30;;;23.40;99.90;;;;;;5096642;28;20020;-76
2023/07/09 06:48:37;;;;;;;10.25;6.03;;;23.70;99.90;;;;;;5105665;28;20476;-79
2023/07/09 06:51:03;;;;;;;9.77;6.22;;;23.90;99.90;;;;;;5089495;28;20035;-78
2023/07/09 06:53:29;;;;;;;13.55;6.28;;;24.20;99.90;;;;;;5108067;28;20379;-76
2023/07/09 06:55:58;;;;;;;10.75;5.80;;;24.40;99.90;;;;;;5097594;28;20048;-80
2023/07/09 06:58:27;;;;;;;9.80;5.72;;;24.60;99.90;;;;;;5102196;28;20556;-76
2023/07/09 07:00:54;;;;;;;8.57;5.50;;;24.80;99.90;;;;;;5108313;28;20127;-77
2023/07/09 07:03:20;;;;;;;7.90;5.47;;;25.00;99.90;;;;;;5108126;28;20369;-78
2023/07/09 07:05:49;;;;;;;13.20;5.90;;;25.10;99.90;;;;;;5109247;28;20122;-77
2023/07/09 07:08:17;;;;;;;8.90;5.30;;;25.30;99.90;;;;;;5100442;28;20026;-76
2023/07/09 07:10:43;;;;;;;11.30;5.35;;;25.40;99.90;;;;;;5101710;28;20028;-78
2023/07/09 07:13:09;;;;;;;10.02;5.10;;;25.60;99.90;;;;;;5106025;28;20025;-78
2023/07/09 07:15:37;;;;;;;7.97;5.10;;;25.80;99.90;;;;;;5097303;28;20027;-74
2023/07/09 07:18:03;;;;;;;10.80;4.97;;;25.90;99.90;;;;;;5095684;28;20106;-80
2023/07/09 07:20:30;;;;;;;9.70;5.60;;;26.10;99.90;;;;;;5101722;28;20515;-76
2023/07/09 07:22:56;;;;;;;7.13;4.80;;;26.40;99.90;;;;;;5096394;28;20126;-77
2023/07/09 07:25:23;;;;;;;12.15;5.18;;;26.70;99.90;;;;;;5105233;28;20105;-79
2023/07/09 07:27:48;;;;;;;7.70;4.57;;;27.00;98.40;;;;;;5107038;28;20042;-73
2023/07/09 07:30:14;;;;;;;9.85;5.03;;;27.30;97.60;;;;;;5108876;28;20032;-77
2023/07/09 07:32:48;;;;;;;11.82;5.07;;;27.60;95.30;;;;;;5085084;28;20032;-79
2023/07/09 07:35:14;;;;;;;7.85;4.63;;;27.80;95.30;;;;;;5100755;28;20030;-78
2023/07/09 07:37:41;;;;;;;14.00;4.97;;;28.00;94.10;;;;;;5078982;28;20080;-76
2023/07/09 07:40:07;;;;;;;9.35;5.10;;;28.20;94.70;;;;;;5100969;27;20027;-78
2023/07/09 07:42:33;;;;;;;10.65;5.00;;;28.30;95.50;;;;;;5085866;28;20464;-76
2023/07/09 07:44:59;;;;;;;10.80;4.68;;;28.20;94.10;;;;;;5103155;28;20024;-79
2023/07/09 07:47:26;;;;;;;11.65;4.88;;;28.20;93.90;;;;;;5106248;28;20048;-78
2023/07/09 07:49:53;;;;;;;12.02;5.07;;;28.40;94.50;;;;;;5108379;28;20074;-72
2023/07/09 07:52:19;;;;;;;10.75;5.40;;;28.50;95.30;;;;;;5108686;28;20035;-76
2023/07/09 07:54:44;;;;;;;10.45;5.13;;;28.50;93.90;;;;;;5110500;28;20371;-76
2023/07/09 07:57:10;;;;;;;8.13;4.70;;;28.50;93.70;;;;;;5126922;27;20546;-76
2023/07/09 07:59:37;;;;;;;8.27;4.75;;;28.60;93.20;;;;;;5115826;28;20027;-76
2023/07/09 08:02:04;;;;;;;11.27;5.35;;;28.70;93.30;;;;;;5113795;28;20039;-79
2023/07/09 08:04:29;;;;;;;8.90;4.63;;;28.90;92.00;;;;;;5110648;28;20058;-76
2023/07/09 08:06:55;;;;;;;7.60;5.00;;;29.10;91.60;;;;;;5113046;28;20031;-78
2023/07/09 08:09:21;;;;;;;8.13;4.03;;;29.00;90.50;;;;;;5114798;28;20475;-75
2023/07/09 08:11:47;;;;;;;9.68;4.60;;;29.20;90.30;;;;;;5107486;28;20015;-78
2023/07/09 08:14:12;;;;;;;11.20;4.18;;;29.50;86.80;;;;;;5100120;27;20601;-77
2023/07/09 08:16:39;;;;;;;8.38;4.43;;;29.70;85.00;;;;;;5104400;27;20031;-78
2023/07/09 08:19:05;;;;;;;11.45;4.65;;;29.90;86.30;;;;;;5134501;27;20043;-77
2023/07/09 08:21:31;;;;;;;8.50;5.18;;;30.00;82.70;;;;;;5120791;27;20027;-74
2023/07/09 08:23:56;;;;;;;7.43;4.50;;;30.10;81.90;;;;;;5114818;28;20035;-74
2023/07/09 08:26:24;;;;;;;10.02;4.30;;;30.20;81.50;;;;;;5112755;28;20030;-73
2023/07/09 08:28:50;;;;;;;10.77;4.53;;;30.40;80.70;;;;;;5115098;27;20027;-77
2023/07/09 08:31:16;;;;;;;8.13;4.85;;;30.60;79.50;;;;;;5134087;27;20023;-74
2023/07/09 08:33:41;;;;;;;10.13;4.43;;;30.60;77.80;;;;;;5134708;27;20039;-76
2023/07/09 08:36:07;;;;;;;6.75;4.55;;;30.70;76.30;;;;;;5135454;27;20478;-74
2023/07/09 08:38:33;;;;;;;7.70;4.93;;;30.60;75.20;;;;;;5136004;27;20031;-74
2023/07/09 08:41:25;;;;;;;10.40;4.93;;;30.70;76.70;;;;;;5135147;27;20484;-75
2023/07/09 08:43:54;;;;;;;6.93;4.30;;;30.70;74.80;;;;;;5089389;27;20045;-75
2023/07/09 08:46:34;;;;;;;9.63;5.28;;;30.50;75.00;;;;;;5135362;27;20030;-76
2023/07/09 08:49:03;;;;;;;12.52;4.80;;;30.60;70.90;;;;;;5112136;27;20474;-75
2023/07/09 08:51:37;;;;;;;11.88;4.80;;;30.50;70.00;;;;;;5106779;27;20023;-74
2023/07/09 08:54:03;;;;;;;10.77;5.13;;;30.70;71.40;;;;;;5116432;27;20035;-74
2023/07/09 08:56:33;;;;;;;8.93;4.70;;;31.00;65.30;;;;;;5135801;27;20374;-75
2023/07/09 08:59:02;;;;;;;6.85;4.80;;;31.30;67.90;;;;;;5135038;27;20027;-73
2023/07/09 09:01:43;;;;;;;8.40;4.80;;;31.60;67.20;;;;;;5131152;27;20038;-76
2023/07/09 09:04:26;;;;;;;9.85;4.30;;;31.70;62.30;;;;;;5128447;27;20031;-75
2023/07/09 09:07:16;;;;;;;9.27;4.30;;;31.80;63.00;;;;;;5132888;27;20020;-78
2023/07/09 09:09:55;;;;;;;7.90;4.00;;;31.90;59.50;;;;;;5132898;27;20031;-76
2023/07/09 09:12:38;;;;;;;7.28;4.38;;;31.70;57.30;;;;;;5129850;27;20031;-74
2023/07/09 09:15:13;;;;;;;9.43;4.72;;;31.80;58.50;;;;;;5131595;27;20027;-78
2023/07/09 09:17:40;;;;;;;10.73;4.68;;;32.00;59.20;;;;;;5122371;27;20027;-76
2023/07/09 09:20:19;;;;;;;10.68;4.65;;;32.00;56.70;;;;;;5110957;28;20111;-74
2023/07/09 09:23:12;;;;;;;12.68;4.80;;;31.90;56.50;;;;;;5111706;28;20024;-75
2023/07/09 09:25:44;;;;;;;7.70;4.93;;;32.10;59.40;;;;;;5111535;27;21834;-74
2023/07/09 09:28:10;;;;;;;11.02;4.70;;;32.10;58.90;;;;;;5128963;27;20034;-77
2023/07/09 09:30:35;;;;;;;6.47;4.43;;;32.20;59.20;;;;;;5132166;27;20407;-76
2023/07/09 09:33:06;;;;;;;8.10;4.78;;;32.40;57.80;;;;;;5131071;27;20035;-75
2023/07/09 09:35:45;;;;;;;8.05;4.53;;;32.60;58.90;;;;;;5131958;27;20108;-73
2023/07/09 09:38:17;;;;;;;9.95;4.88;;;32.80;56.40;;;;;;5120402;27;20569;-72
2023/07/09 09:40:43;;;;;;;12.75;4.95;;;32.70;54.70;;;;;;5098052;27;20035;-75
2023/07/09 09:43:17;;;;;;;7.43;4.45;;;32.90;57.20;;;;;;5130958;27;20032;-76
2023/07/09 09:45:44;;;;;;;8.48;4.60;;;33.20;57.60;;;;;;5113484;27;20055;-74
2023/07/09 09:48:30;;;;;;;7.57;5.40;;;33.40;56.00;;;;;;5116573;27;20059;-73
2023/07/09 09:51:01;;;;;;;8.90;4.90;;;33.40;56.10;;;;;;5111099;28;20114;-73
2023/07/09 09:53:29;;;;;;;6.20;4.13;;;33.50;56.70;;;;;;5111105;28;20036;-73
2023/07/09 09:55:56;;;;;;;8.32;4.45;;;33.40;52.90;;;;;;5125845;27;20118;-75
2023/07/09 09:58:28;;;;;;;10.98;4.55;;;33.30;52.20;;;;;;5131166;27;20020;-74
2023/07/09 10:00:56;;;;;;;11.43;4.82;;;33.40;55.80;;;;;;5131554;27;20033;-76
2023/07/09 10:03:36;;;;;;;7.72;4.82;;;33.60;52.70;;;;;;5131053;27;20054;-75
2023/07/09 10:06:28;;;;;;;6.22;4.47;;;33.30;52.40;;;;;;5119927;27;20034;-74
2023/07/09 10:09:02;;;;;;;9.15;4.93;;;33.30;50.90;;;;;;5091768;27;20093;-75
2023/07/09 10:11:49;;;;;;;8.55;4.88;;;33.40;51.70;;;;;;5131528;27;20023;-74
2023/07/09 10:14:45;;;;;;;11.20;4.78;;;33.60;50.00;;;;;;5130444;27;20436;-73
2023/07/09 10:17:19;;;;;;;10.75;4.47;;;33.90;52.60;;;;;;5123496;27;20058;-74
2023/07/09 10:20:03;;;;;;;7.20;4.82;;;33.60;51.40;;;;;;5110002;28;20486;-74
2023/07/09 10:22:58;;;;;;;7.85;4.57;;;33.30;51.10;;;;;;5125927;27;20438;-74
2023/07/09 10:25:38;;;;;;;6.32;4.45;;;33.40;52.00;;;;;;5111989;27;20133;-72
2023/07/09 10:28:19;;;;;;;9.55;4.70;;;33.70;51.30;;;;;;5130148;27;20056;-74
2023/07/09 10:31:06;;;;;;;9.82;4.70;;;33.70;51.10;;;;;;5130843;27;20093;-73
2023/07/09 10:33:34;;;;;;;11.05;4.47;;;33.20;48.50;;;;;;5130707;27;20046;-75
2023/07/09 10:36:18;;;;;;;8.70;4.70;;;33.10;51.30;;;;;;5092929;27;20162;-73
2023/07/09 10:39:08;;;;;;;8.70;4.47;;;33.20;50.50;;;;;;5130797;27;20023;-75
2023/07/09 10:41:37;;;;;;;10.52;4.63;;;33.50;50.30;;;;;;5130797;27;20049;-73
2023/07/09 10:44:28;;;;;;;11.90;4.90;;;33.40;49.30;;;;;;5129625;27;20479;-73
2023/07/09 10:46:57;;;;;;;10.10;4.97;;;33.70;47.40;;;;;;5127306;27;20039;-75
2023/07/09 10:49:30;;;;;;;9.10;4.53;;;33.80;47.80;;;;;;5109241;28;20031;-72
2023/07/09 10:52:07;;;;;;;10.65;4.88;;;34.00;48.20;;;;;;5090659;28;20031;-74
2023/07/09 10:54:42;;;;;;;12.10;4.68;;;34.30;48.10;;;;;;5110029;28;20066;-75
2023/07/09 10:57:18;;;;;;;12.90;4.90;;;34.40;46.50;;;;;;5109171;28;20089;-73
2023/07/09 10:59:47;;;;;;;13.20;5.00;;;34.50;49.80;;;;;;5109243;28;20039;-74
2023/07/09 11:02:27;;;;;;;8.00;4.70;;;34.50;48.70;;;;;;5108647;28;20369;-75
2023/07/09 11:05:00;;;;;;;14.82;5.10;;;34.80;47.60;;;;;;5109805;28;20258;-74
2023/07/09 11:07:32;;;;;;;8.65;4.70;;;35.00;46.60;;;;;;5109293;28;20546;-73
2023/07/09 11:09:58;;;;;;;11.45;4.70;;;34.90;46.70;;;;;;5109610;28;20027;-74
2023/07/09 11:12:37;;;;;;;8.65;4.80;;;34.70;46.70;;;;;;5108746;28;20023;-74
2023/07/09 11:15:13;;;;;;;14.25;5.25;;;34.90;45.80;;;;;;5123463;27;20030;-72
2023/07/09 11:17:43;;;;;;;15.23;5.22;;;35.20;47.40;;;;;;5120070;27;20034;-73
2023/07/09 11:20:18;;;;;;;;;;;35.30;45.70;;;;;;5109220;28;20028;-75
2023/07/09 11:22:52;;;;;;;9.93;4.68;;;35.30;44.60;;;;;;5109404;28;19911;-73
2023/07/09 11:25:29;;;;;;;9.98;5.00;;;35.60;46.00;;;;;;5108633;28;20031;-75
2023/07/09 11:28:03;;;;;;;7.97;4.78;;;36.00;44.90;;;;;;5108775;28;20476;-73
2023/07/09 11:30:29;;;;;;;10.45;5.15;;;36.00;45.20;;;;;;5126294;27;20034;-74
2023/07/09 11:33:02;;;;;;;12.05;5.57;;;35.70;45.20;;;;;;5111164;27;20092;-75
2023/07/09 11:36:02;;;;;;;12.50;4.88;;;35.50;46.00;;;;;;5129384;27;20042;-74
2023/07/09 11:38:49;;;;;;;10.80;5.20;;;35.50;46.00;;;;;;5071916;27;20499;-75
2023/07/09 11:41:46;;;;;;;9.25;4.85;;;35.00;46.70;;;;;;5128994;27;20075;-75
2023/07/09 11:44:23;;;;;;;13.98;5.60;;;34.90;46.30;;;;;;5128774;27;20031;-74
2023/07/09 11:47:17;;;;;;;12.45;5.45;;;35.40;45.10;;;;;;5125771;27;20055;-76
2023/07/09 11:49:48;;;;;;;17.42;5.28;;;35.50;44.10;;;;;;5109124;28;20074;-72
2023/07/09 11:52:16;;;;;;;7.75;4.78;;;35.50;44.20;;;;;;5108852;28;20077;-74
2023/07/09 11:54:42;;;;;;;12.55;5.03;;;35.40;44.20;;;;;;5129267;28;20039;-74
2023/07/09 11:57:13;;;;;;;9.13;4.72;;;35.50;44.00;;;;;;5110318;28;20035;-72
2023/07/09 11:59:43;;;;;;;10.57;4.88;;;35.60;45.10;;;;;;5129536;28;20034;-76
2023/07/09 12:02:20;;;;;;;11.75;5.30;;;35.30;46.00;;;;;;5128894;28;20100;-74
2023/07/09 12:04:51;;;;;;;8.07;4.78;;;34.80;46.00;;;;;;5111178;28;20073;-74
2023/07/09 12:07:17;;;;;;;10.68;5.38;;;34.70;45.00;;;;;;5124345;28;20039;-72
2023/07/09 12:09:53;;;;;;;10.13;5.30;;;34.90;47.00;;;;;;5108938;28;20027;-73
2023/07/09 12:12:21;;;;;;;13.25;5.28;;;34.50;46.30;;;;;;5108178;28;20044;-73
2023/07/09 12:14:47;;;;;;;11.80;5.00;;;34.00;47.30;;;;;;5108918;28;20040;-74
2023/07/09 12:17:12;;;;;;;10.32;5.28;;;33.30;48.70;;;;;;5089469;28;20051;-74
2023/07/09 12:19:39;;;;;;;13.15;5.90;;;33.20;47.90;;;;;;5124528;28;20031;-73
2023/07/09 12:22:10;;;;;;;13.57;5.25;;;32.80;48.00;;;;;;5129482;28;20023;-72
2023/07/09 12:24:39;;;;;;;17.08;5.55;;;32.50;47.50;;;;;;5129327;28;20027;-76
2023/07/09 12:27:25;;;;;;;12.27;4.90;;;32.80;47.90;;;;;;5129416;28;20421;-73
2023/07/09 12:29:56;;;;;;;10.80;5.30;;;32.90;48.80;;;;;;5129939;28;20031;-74
2023/07/09 12:32:23;;;;;;;8.55;4.63;;;33.30;48.90;;;;;;5128583;28;20080;-75
2023/07/09 12:34:53;;;;;;;14.52;5.38;;;33.70;49.40;;;;;;5109584;28;20034;-72
2023/07/09 12:37:22;;;;;;;14.02;5.45;;;33.90;47.10;;;;;;5107895;28;20031;-74
2023/07/09 12:39:51;;;;;;;9.13;5.50;;;34.10;47.80;;;;;;5109064;28;20039;-75
2023/07/09 12:42:20;;;;;;;10.15;4.88;;;34.50;45.80;;;;;;5115557;27;20042;-75
2023/07/09 12:44:48;;;;;;;11.70;4.97;;;35.10;45.70;;;;;;5132875;27;20027;-73
2023/07/09 12:47:15;;;;;;;10.88;5.38;;;35.00;47.00;;;;;;5125898;27;20285;-75
2023/07/09 12:49:43;;;;;;;9.15;4.97;;;35.30;45.40;;;;;;5112240;28;20070;-73
2023/07/09 12:52:24;;;;;;;13.07;4.97;;;34.90;44.70;;;;;;5111724;28;20110;-72